sensor_id;sensor_type;location;lat;lon;timestamp;P1;durP1;ratioP1;P2;durP2;ratioP2
59239;SDS011;45010;53.640;10.578;2024-03-23T00:54:57;2.83;;;1.48;;
59239;SDS011;45010;53.640;10.578;2024-03-23T00:57:57;2.90;;;1.02;;
59239;SDS011;45010;53.640;10.578;2024-03-23T01:00:58;3.00;;;1.30;;
59239;SDS011;45010;53.640;10.578;2024-03-23T01:03:58;2.83;;;1.25;;
59239;SDS011;45010;53.640;10.578;2024-03-23T01:06:59;2.20;;;0.85;;
59239;SDS011;45010;53.640;10.578;2024-03-23T01:09:59;1.92;;;1.00;;
59239;SDS011;45010;53.640;10.578;2024-03-23T01:13:00;3.00;;;1.13;;
59239;SDS011;45010;53.640;10.578;2024-03-23T01:16:00;2.17;;;0.90;;
59239;SDS011;45010;53.640;10.578;2024-03-23T01:19:01;2.75;;;0.98;;
59239;SDS011;45010;53.640;10.578;2024-03-23T01:22:01;2.60;;;1.20;;
59239;SDS011;45010;53.640;10.578;2024-03-23T01:25:02;2.70;;;1.23;;
59239;SDS011;45010;53.640;10.578;2024-03-23T01:28:03;2.55;;;0.98;;
59239;SDS011;45010;53.640;10.578;2024-03-23T01:31:04;2.97;;;1.30;;
59239;SDS011;45010;53.640;10.578;2024-03-23T01:34:05;3.83;;;1.15;;
59239;SDS011;45010;53.640;10.578;2024-03-23T01:37:05;4.97;;;1.55;;
59239;SDS011;45010;53.640;10.578;2024-03-23T01:40:06;2.70;;;1.20;;
59239;SDS011;45010;53.640;10.578;2024-03-23T01:43:07;2.63;;;1.50;;
59239;SDS011;45010;53.640;10.578;2024-03-23T01:46:08;2.78;;;1.25;;
59239;SDS011;45010;53.640;10.578;2024-03-23T01:49:08;3.10;;;1.20;;
59239;SDS011;45010;53.640;10.578;2024-03-23T01:52:09;2.13;;;1.10;;
59239;SDS011;45010;53.640;10.578;2024-03-23T01:55:10;2.35;;;1.10;;
59239;SDS011;45010;53.640;10.578;2024-03-23T01:58:10;3.90;;;1.38;;
59239;SDS011;45010;53.640;10.578;2024-03-23T02:01:10;3.08;;;1.13;;
59239;SDS011;45010;53.640;10.578;2024-03-23T02:04:11;2.13;;;0.95;;
59239;SDS011;45010;53.640;10.578;2024-03-23T02:07:11;2.92;;;1.20;;
59239;SDS011;45010;53.640;10.578;2024-03-23T02:10:11;1.98;;;0.80;;
59239;SDS011;45010;53.640;10.578;2024-03-23T02:13:15;3.53;;;1.20;;
59239;SDS011;45010;53.640;10.578;2024-03-23T02:16:16;1.70;;;1.00;;
59239;SDS011;45010;53.640;10.578;2024-03-23T02:19:16;2.42;;;1.27;;
59239;SDS011;45010;53.640;10.578;2024-03-23T02:22:16;1.73;;;1.20;;
59239;SDS011;45010;53.640;10.578;2024-03-23T02:25:17;2.38;;;1.10;;
59239;SDS011;45010;53.640;10.578;2024-03-23T02:28:17;2.53;;;1.15;;
59239;SDS011;45010;53.640;10.578;2024-03-23T02:31:17;2.80;;;1.23;;
59239;SDS011;45010;53.640;10.578;2024-03-23T02:34:18;2.33;;;1.10;;
59239;SDS011;45010;53.640;10.578;2024-03-23T02:37:18;2.75;;;1.33;;
59239;SDS011;45010;53.640;10.578;2024-03-23T02:40:19;2.47;;;1.08;;
59239;SDS011;45010;53.640;10.578;2024-03-23T02:43:20;3.42;;;1.20;;
59239;SDS011;45010;53.640;10.578;2024-03-23T02:46:20;2.38;;;1.10;;
59239;SDS011;45010;53.640;10.578;2024-03-23T02:49:21;2.25;;;1.00;;
59239;SDS011;45010;53.640;10.578;2024-03-23T02:52:21;2.80;;;1.10;;
59239;SDS011;45010;53.640;10.578;2024-03-23T02:55:21;4.00;;;1.27;;
59239;SDS011;45010;53.640;10.578;2024-03-23T02:58:22;1.92;;;1.00;;
59239;SDS011;45010;53.640;10.578;2024-03-23T03:01:22;4.07;;;1.20;;
59239;SDS011;45010;53.640;10.578;2024-03-23T03:04:23;2.95;;;0.98;;
59239;SDS011;45010;53.640;10.578;2024-03-23T03:07:23;3.47;;;0.88;;
59239;SDS011;45010;53.640;10.578;2024-03-23T03:10:23;1.80;;;0.88;;
59239;SDS011;45010;53.640;10.578;2024-03-23T03:13:24;1.90;;;1.00;;
59239;SDS011;45010;53.640;10.578;2024-03-23T03:16:24;3.97;;;1.10;;
59239;SDS011;45010;53.640;10.578;2024-03-23T03:19:24;2.45;;;1.10;;
59239;SDS011;45010;53.640;10.578;2024-03-23T03:22:25;1.80;;;0.90;;
59239;SDS011;45010;53.640;10.578;2024-03-23T03:25:25;2.97;;;1.20;;
59239;SDS011;45010;53.640;10.578;2024-03-23T03:28:25;2.45;;;1.30;;
59239;SDS011;45010;53.640;10.578;2024-03-23T03:31:30;2.92;;;1.40;;
59239;SDS011;45010;53.640;10.578;2024-03-23T03:34:31;2.20;;;1.08;;
59239;SDS011;45010;53.640;10.578;2024-03-23T03:37:31;2.13;;;0.98;;
59239;SDS011;45010;53.640;10.578;2024-03-23T03:40:31;2.85;;;1.17;;
59239;SDS011;45010;53.640;10.578;2024-03-23T03:43:32;2.42;;;1.15;;
59239;SDS011;45010;53.640;10.578;2024-03-23T03:46:32;2.60;;;1.20;;
59239;SDS011;45010;53.640;10.578;2024-03-23T03:49:33;3.22;;;1.50;;
59239;SDS011;45010;53.640;10.578;2024-03-23T03:52:33;2.72;;;1.10;;
59239;SDS011;45010;53.640;10.578;2024-03-23T03:55:33;2.00;;;1.05;;
59239;SDS011;45010;53.640;10.578;2024-03-23T03:58:34;3.40;;;1.40;;
59239;SDS011;45010;53.640;10.578;2024-03-23T04:01:34;2.30;;;1.08;;
59239;SDS011;45010;53.640;10.578;2024-03-23T04:04:35;1.95;;;1.05;;
59239;SDS011;45010;53.640;10.578;2024-03-23T04:07:35;2.78;;;1.42;;
59239;SDS011;45010;53.640;10.578;2024-03-23T04:10:36;2.97;;;1.45;;
59239;SDS011;45010;53.640;10.578;2024-03-23T04:13:36;2.40;;;1.02;;
59239;SDS011;45010;53.640;10.578;2024-03-23T04:16:36;2.38;;;1.00;;
59239;SDS011;45010;53.640;10.578;2024-03-23T04:19:37;2.72;;;1.30;;
59239;SDS011;45010;53.640;10.578;2024-03-23T04:22:37;2.15;;;1.23;;
59239;SDS011;45010;53.640;10.578;2024-03-23T04:25:38;2.80;;;1.10;;
59239;SDS011;45010;53.640;10.578;2024-03-23T04:28:38;2.60;;;1.02;;
59239;SDS011;45010;53.640;10.578;2024-03-23T04:31:38;3.20;;;1.02;;
59239;SDS011;45010;53.640;10.578;2024-03-23T04:34:39;2.80;;;1.00;;
59239;SDS011;45010;53.640;10.578;2024-03-23T04:37:39;2.65;;;0.90;;
59239;SDS011;45010;53.640;10.578;2024-03-23T04:40:42;2.25;;;0.98;;
59239;SDS011;45010;53.640;10.578;2024-03-23T04:43:43;2.38;;;0.95;;
59239;SDS011;45010;53.640;10.578;2024-03-23T04:46:43;2.53;;;0.95;;
59239;SDS011;45010;53.640;10.578;2024-03-23T04:49:44;2.42;;;1.08;;
59239;SDS011;45010;53.640;10.578;2024-03-23T04:52:44;3.08;;;1.10;;
59239;SDS011;45010;53.640;10.578;2024-03-23T04:55:44;1.77;;;1.05;;
59239;SDS011;45010;53.640;10.578;2024-03-23T04:58:45;2.28;;;1.20;;
59239;SDS011;45010;53.640;10.578;2024-03-23T05:01:45;2.35;;;1.10;;
59239;SDS011;45010;53.640;10.578;2024-03-23T05:04:46;2.60;;;1.10;;
59239;SDS011;45010;53.640;10.578;2024-03-23T05:07:46;2.72;;;1.27;;
59239;SDS011;45010;53.640;10.578;2024-03-23T05:10:46;1.75;;;0.80;;
59239;SDS011;45010;53.640;10.578;2024-03-23T05:13:47;2.05;;;1.20;;
59239;SDS011;45010;53.640;10.578;2024-03-23T05:16:47;2.95;;;1.00;;
59239;SDS011;45010;53.640;10.578;2024-03-23T05:19:48;2.10;;;0.90;;
59239;SDS011;45010;53.640;10.578;2024-03-23T05:22:49;2.65;;;0.80;;
59239;SDS011;45010;53.640;10.578;2024-03-23T05:25:49;1.55;;;1.02;;
59239;SDS011;45010;53.640;10.578;2024-03-23T05:28:50;1.88;;;1.08;;
59239;SDS011;45010;53.640;10.578;2024-03-23T05:31:51;2.55;;;1.23;;
59239;SDS011;45010;53.640;10.578;2024-03-23T05:34:53;2.33;;;0.80;;
59239;SDS011;45010;53.640;10.578;2024-03-23T05:37:56;2.72;;;1.13;;
59239;SDS011;45010;53.640;10.578;2024-03-23T05:40:57;1.88;;;0.90;;
59239;SDS011;45010;53.640;10.578;2024-03-23T05:43:59;1.77;;;1.00;;
59239;SDS011;45010;53.640;10.578;2024-03-23T05:46:59;2.78;;;0.90;;
59239;SDS011;45010;53.640;10.578;2024-03-23T05:49:59;2.13;;;1.20;;
59239;SDS011;45010;53.640;10.578;2024-03-23T05:53:01;2.63;;;1.10;;
59239;SDS011;45010;53.640;10.578;2024-03-23T05:56:02;2.20;;;0.90;;
59239;SDS011;45010;53.640;10.578;2024-03-23T05:59:03;3.30;;;1.23;;
59239;SDS011;45010;53.640;10.578;2024-03-23T06:02:04;1.45;;;0.95;;
59239;SDS011;45010;53.640;10.578;2024-03-23T06:05:04;3.22;;;1.00;;
59239;SDS011;45010;53.640;10.578;2024-03-23T06:08:05;2.35;;;1.23;;
59239;SDS011;45010;53.640;10.578;2024-03-23T06:11:05;1.58;;;0.80;;
59239;SDS011;45010;53.640;10.578;2024-03-23T06:14:06;2.10;;;1.10;;
59239;SDS011;45010;53.640;10.578;2024-03-23T06:17:06;2.78;;;0.85;;
59239;SDS011;45010;53.640;10.578;2024-03-23T06:20:07;3.05;;;1.08;;
59239;SDS011;45010;53.640;10.578;2024-03-23T06:23:07;3.97;;;1.20;;
59239;SDS011;45010;53.640;10.578;2024-03-23T06:26:08;3.05;;;1.08;;
59239;SDS011;45010;53.640;10.578;2024-03-23T06:29:09;2.47;;;0.90;;
59239;SDS011;45010;53.640;10.578;2024-03-23T06:32:09;3.47;;;1.10;;
59239;SDS011;45010;53.640;10.578;2024-03-23T06:35:10;2.30;;;1.15;;
59239;SDS011;45010;53.640;10.578;2024-03-23T06:38:10;2.00;;;0.77;;
59239;SDS011;45010;53.640;10.578;2024-03-23T06:41:10;2.15;;;1.05;;
59239;SDS011;45010;53.640;10.578;2024-03-23T06:44:11;2.60;;;1.30;;
59239;SDS011;45010;53.640;10.578;2024-03-23T06:47:11;2.15;;;1.15;;
59239;SDS011;45010;53.640;10.578;2024-03-23T06:50:12;2.13;;;1.17;;
59239;SDS011;45010;53.640;10.578;2024-03-23T06:53:13;2.55;;;0.98;;
59239;SDS011;45010;53.640;10.578;2024-03-23T06:56:13;2.53;;;1.10;;
59239;SDS011;45010;53.640;10.578;2024-03-23T06:59:14;2.88;;;0.88;;
59239;SDS011;45010;53.640;10.578;2024-03-23T07:02:14;2.05;;;0.70;;
59239;SDS011;45010;53.640;10.578;2024-03-23T07:05:15;3.35;;;1.15;;
59239;SDS011;45010;53.640;10.578;2024-03-23T07:08:16;1.50;;;0.70;;
59239;SDS011;45010;53.640;10.578;2024-03-23T07:11:21;1.85;;;0.75;;
59239;SDS011;45010;53.640;10.578;2024-03-23T07:14:23;2.00;;;1.02;;
59239;SDS011;45010;53.640;10.578;2024-03-23T07:17:23;3.42;;;0.90;;
59239;SDS011;45010;53.640;10.578;2024-03-23T07:20:24;2.13;;;0.90;;
59239;SDS011;45010;53.640;10.578;2024-03-23T07:23:24;3.47;;;1.00;;
59239;SDS011;45010;53.640;10.578;2024-03-23T07:26:25;3.63;;;1.00;;
59239;SDS011;45010;53.640;10.578;2024-03-23T07:29:25;1.98;;;1.08;;
59239;SDS011;45010;53.640;10.578;2024-03-23T07:32:25;3.83;;;1.15;;
59239;SDS011;45010;53.640;10.578;2024-03-23T07:35:26;2.88;;;1.05;;
59239;SDS011;45010;53.640;10.578;2024-03-23T07:38:27;2.10;;;0.80;;
59239;SDS011;45010;53.640;10.578;2024-03-23T07:41:28;2.55;;;0.90;;
59239;SDS011;45010;53.640;10.578;2024-03-23T07:44:28;3.25;;;1.10;;
59239;SDS011;45010;53.640;10.578;2024-03-23T07:47:29;3.35;;;1.10;;
59239;SDS011;45010;53.640;10.578;2024-03-23T07:50:29;3.53;;;1.27;;
59239;SDS011;45010;53.640;10.578;2024-03-23T07:53:29;5.50;;;1.35;;
59239;SDS011;45010;53.640;10.578;2024-03-23T07:56:31;3.17;;;1.20;;
59239;SDS011;45010;53.640;10.578;2024-03-23T07:59:32;2.78;;;1.02;;
59239;SDS011;45010;53.640;10.578;2024-03-23T08:02:33;3.05;;;1.08;;
59239;SDS011;45010;53.640;10.578;2024-03-23T08:05:34;3.13;;;1.17;;
59239;SDS011;45010;53.640;10.578;2024-03-23T08:08:35;3.22;;;1.45;;
59239;SDS011;45010;53.640;10.578;2024-03-23T08:11:35;3.80;;;1.33;;
59239;SDS011;45010;53.640;10.578;2024-03-23T08:14:36;2.28;;;1.17;;
59239;SDS011;45010;53.640;10.578;2024-03-23T08:17:36;4.25;;;1.60;;
59239;SDS011;45010;53.640;10.578;2024-03-23T08:20:36;3.17;;;1.13;;
59239;SDS011;45010;53.640;10.578;2024-03-23T08:23:37;3.85;;;1.10;;
59239;SDS011;45010;53.640;10.578;2024-03-23T08:26:40;2.47;;;0.90;;
59239;SDS011;45010;53.640;10.578;2024-03-23T08:29:40;3.30;;;1.35;;
59239;SDS011;45010;53.640;10.578;2024-03-23T08:32:41;5.47;;;1.48;;
59239;SDS011;45010;53.640;10.578;2024-03-23T08:35:41;3.97;;;1.10;;
59239;SDS011;45010;53.640;10.578;2024-03-23T08:38:42;3.88;;;1.30;;
59239;SDS011;45010;53.640;10.578;2024-03-23T08:41:42;3.17;;;1.30;;
59239;SDS011;45010;53.640;10.578;2024-03-23T08:44:46;5.57;;;1.70;;
59239;SDS011;45010;53.640;10.578;2024-03-23T08:47:49;3.80;;;1.40;;
59239;SDS011;45010;53.640;10.578;2024-03-23T08:51:02;3.35;;;1.25;;
59239;SDS011;45010;53.640;10.578;2024-03-23T08:54:04;3.10;;;1.20;;
59239;SDS011;45010;53.640;10.578;2024-03-23T08:57:04;4.03;;;1.40;;
59239;SDS011;45010;53.640;10.578;2024-03-23T09:00:05;4.57;;;1.30;;
59239;SDS011;45010;53.640;10.578;2024-03-23T09:03:08;3.92;;;1.10;;
59239;SDS011;45010;53.640;10.578;2024-03-23T09:06:09;2.88;;;1.15;;
59239;SDS011;45010;53.640;10.578;2024-03-23T09:09:11;4.80;;;1.38;;
59239;SDS011;45010;53.640;10.578;2024-03-23T09:12:11;4.45;;;1.35;;
59239;SDS011;45010;53.640;10.578;2024-03-23T09:15:11;6.32;;;1.55;;
59239;SDS011;45010;53.640;10.578;2024-03-23T09:18:12;4.63;;;1.10;;
59239;SDS011;45010;53.640;10.578;2024-03-23T09:21:12;7.28;;;1.42;;
59239;SDS011;45010;53.640;10.578;2024-03-23T09:24:14;4.03;;;1.58;;
59239;SDS011;45010;53.640;10.578;2024-03-23T09:27:14;5.55;;;1.60;;
59239;SDS011;45010;53.640;10.578;2024-03-23T09:30:14;4.20;;;1.60;;
59239;SDS011;45010;53.640;10.578;2024-03-23T09:33:15;5.43;;;1.42;;
59239;SDS011;45010;53.640;10.578;2024-03-23T09:36:15;4.85;;;1.88;;
59239;SDS011;45010;53.640;10.578;2024-03-23T09:39:15;6.13;;;1.55;;
59239;SDS011;45010;53.640;10.578;2024-03-23T09:42:16;5.78;;;1.67;;
59239;SDS011;45010;53.640;10.578;2024-03-23T09:45:17;4.15;;;1.60;;
59239;SDS011;45010;53.640;10.578;2024-03-23T09:48:21;5.45;;;1.58;;
59239;SDS011;45010;53.640;10.578;2024-03-23T09:51:21;4.22;;;1.80;;
59239;SDS011;45010;53.640;10.578;2024-03-23T09:54:22;5.05;;;1.48;;
59239;SDS011;45010;53.640;10.578;2024-03-23T09:57:22;3.47;;;1.52;;
59239;SDS011;45010;53.640;10.578;2024-03-23T10:00:22;3.13;;;1.30;;
59239;SDS011;45010;53.640;10.578;2024-03-23T10:03:23;3.85;;;1.60;;
59239;SDS011;45010;53.640;10.578;2024-03-23T10:06:23;4.13;;;1.17;;
59239;SDS011;45010;53.640;10.578;2024-03-23T10:09:26;3.55;;;1.30;;
59239;SDS011;45010;53.640;10.578;2024-03-23T10:12:27;3.40;;;1.23;;
59239;SDS011;45010;53.640;10.578;2024-03-23T10:15:27;3.53;;;1.40;;
59239;SDS011;45010;53.640;10.578;2024-03-23T10:18:28;4.72;;;1.50;;
59239;SDS011;45010;53.640;10.578;2024-03-23T10:21:28;3.45;;;1.58;;
59239;SDS011;45010;53.640;10.578;2024-03-23T10:24:29;4.05;;;1.45;;
59239;SDS011;45010;53.640;10.578;2024-03-23T10:27:29;4.95;;;1.42;;
59239;SDS011;45010;53.640;10.578;2024-03-23T10:30:29;4.18;;;1.30;;
59239;SDS011;45010;53.640;10.578;2024-03-23T10:33:30;3.72;;;1.13;;
59239;SDS011;45010;53.640;10.578;2024-03-23T10:36:30;4.82;;;1.50;;
59239;SDS011;45010;53.640;10.578;2024-03-23T10:39:35;3.05;;;1.10;;
59239;SDS011;45010;53.640;10.578;2024-03-23T10:42:37;3.67;;;1.40;;
59239;SDS011;45010;53.640;10.578;2024-03-23T10:45:38;5.55;;;1.42;;
59239;SDS011;45010;53.640;10.578;2024-03-23T10:48:38;5.47;;;1.23;;
59239;SDS011;45010;53.640;10.578;2024-03-23T10:51:39;2.13;;;1.00;;
59239;SDS011;45010;53.640;10.578;2024-03-23T10:54:39;4.30;;;1.17;;
59239;SDS011;45010;53.640;10.578;2024-03-23T10:57:53;4.45;;;1.20;;
59239;SDS011;45010;53.640;10.578;2024-03-23T11:00:55;2.35;;;1.30;;
59239;SDS011;45010;53.640;10.578;2024-03-23T11:03:55;3.28;;;1.17;;
59239;SDS011;45010;53.640;10.578;2024-03-23T11:06:56;3.83;;;1.13;;
59239;SDS011;45010;53.640;10.578;2024-03-23T11:09:56;4.65;;;0.95;;
59239;SDS011;45010;53.640;10.578;2024-03-23T11:12:57;3.95;;;0.98;;
59239;SDS011;45010;53.640;10.578;2024-03-23T11:16:01;4.07;;;0.98;;
59239;SDS011;45010;53.640;10.578;2024-03-23T11:19:33;2.65;;;1.10;;
59239;SDS011;45010;53.640;10.578;2024-03-23T11:22:40;3.78;;;1.35;;
59239;SDS011;45010;53.640;10.578;2024-03-23T11:25:47;2.78;;;1.25;;
59239;SDS011;45010;53.640;10.578;2024-03-23T11:28:47;3.92;;;1.20;;
59239;SDS011;45010;53.640;10.578;2024-03-23T11:31:48;2.70;;;1.02;;
59239;SDS011;45010;53.640;10.578;2024-03-23T11:34:50;3.42;;;1.10;;
59239;SDS011;45010;53.640;10.578;2024-03-23T11:38:09;3.67;;;1.10;;
59239;SDS011;45010;53.640;10.578;2024-03-23T11:41:11;3.15;;;0.90;;
59239;SDS011;45010;53.640;10.578;2024-03-23T11:44:16;2.67;;;1.17;;
59239;SDS011;45010;53.640;10.578;2024-03-23T11:47:23;4.95;;;1.10;;
59239;SDS011;45010;53.640;10.578;2024-03-23T11:50:24;3.00;;;1.10;;
59239;SDS011;45010;53.640;10.578;2024-03-23T11:53:24;2.83;;;1.02;;
59239;SDS011;45010;53.640;10.578;2024-03-23T11:56:28;3.00;;;1.00;;
59239;SDS011;45010;53.640;10.578;2024-03-23T11:59:31;2.33;;;0.90;;
59239;SDS011;45010;53.640;10.578;2024-03-23T12:02:32;3.42;;;0.90;;
59239;SDS011;45010;53.640;10.578;2024-03-23T12:05:32;2.22;;;0.93;;
59239;SDS011;45010;53.640;10.578;2024-03-23T12:08:34;3.00;;;1.23;;
59239;SDS011;45010;53.640;10.578;2024-03-23T12:11:35;5.18;;;0.93;;
59239;SDS011;45010;53.640;10.578;2024-03-23T12:14:35;1.83;;;0.65;;
59239;SDS011;45010;53.640;10.578;2024-03-23T12:17:36;3.85;;;1.10;;
59239;SDS011;45010;53.640;10.578;2024-03-23T12:20:37;2.40;;;0.75;;
59239;SDS011;45010;53.640;10.578;2024-03-23T12:23:39;1.50;;;0.82;;
59239;SDS011;45010;53.640;10.578;2024-03-23T12:26:40;3.50;;;1.00;;
59239;SDS011;45010;53.640;10.578;2024-03-23T12:29:40;2.03;;;0.80;;
59239;SDS011;45010;53.640;10.578;2024-03-23T12:32:43;3.78;;;0.93;;
59239;SDS011;45010;53.640;10.578;2024-03-23T12:35:43;2.08;;;0.80;;
59239;SDS011;45010;53.640;10.578;2024-03-23T12:38:43;2.70;;;1.02;;
59239;SDS011;45010;53.640;10.578;2024-03-23T12:41:44;2.65;;;0.88;;
59239;SDS011;45010;53.640;10.578;2024-03-23T12:44:45;4.40;;;1.13;;
59239;SDS011;45010;53.640;10.578;2024-03-23T12:47:45;1.60;;;0.90;;
59239;SDS011;45010;53.640;10.578;2024-03-23T12:50:45;3.22;;;1.10;;
59239;SDS011;45010;53.640;10.578;2024-03-23T12:53:46;2.85;;;1.00;;
59239;SDS011;45010;53.640;10.578;2024-03-23T12:56:46;4.03;;;0.98;;
59239;SDS011;45010;53.640;10.578;2024-03-23T12:59:46;1.85;;;0.88;;
59239;SDS011;45010;53.640;10.578;2024-03-23T13:02:50;3.10;;;0.80;;
59239;SDS011;45010;53.640;10.578;2024-03-23T13:05:54;1.20;;;0.60;;
59239;SDS011;45010;53.640;10.578;2024-03-23T13:08:54;3.38;;;0.77;;
59239;SDS011;45010;53.640;10.578;2024-03-23T13:11:54;2.65;;;0.90;;
59239;SDS011;45010;53.640;10.578;2024-03-23T13:14:56;0.90;;;0.60;;
59239;SDS011;45010;53.640;10.578;2024-03-23T13:17:56;1.15;;;0.60;;
59239;SDS011;45010;53.640;10.578;2024-03-23T13:20:58;2.60;;;0.80;;
59239;SDS011;45010;53.640;10.578;2024-03-23T13:23:58;2.30;;;0.88;;
59239;SDS011;45010;53.640;10.578;2024-03-23T13:26:59;1.70;;;0.60;;
59239;SDS011;45010;53.640;10.578;2024-03-23T13:29:59;2.10;;;0.63;;
59239;SDS011;45010;53.640;10.578;2024-03-23T13:33:00;2.80;;;0.93;;
59239;SDS011;45010;53.640;10.578;2024-03-23T13:36:00;2.13;;;0.70;;
59239;SDS011;45010;53.640;10.578;2024-03-23T13:39:03;3.90;;;0.82;;
59239;SDS011;45010;53.640;10.578;2024-03-23T13:42:10;1.73;;;0.60;;
59239;SDS011;45010;53.640;10.578;2024-03-23T13:45:12;2.85;;;0.73;;
59239;SDS011;45010;53.640;10.578;2024-03-23T13:48:12;3.63;;;0.60;;
59239;SDS011;45010;53.640;10.578;2024-03-23T13:51:13;1.77;;;0.80;;
59239;SDS011;45010;53.640;10.578;2024-03-23T13:54:13;3.85;;;0.85;;
59239;SDS011;45010;53.640;10.578;2024-03-23T13:57:14;4.72;;;0.70;;
59239;SDS011;45010;53.640;10.578;2024-03-23T14:00:15;2.55;;;0.70;;
59239;SDS011;45010;53.640;10.578;2024-03-23T14:03:15;2.35;;;0.50;;
59239;SDS011;45010;53.640;10.578;2024-03-23T14:06:16;1.35;;;0.40;;
59239;SDS011;45010;53.640;10.578;2024-03-23T14:09:16;3.40;;;0.73;;
59239;SDS011;45010;53.640;10.578;2024-03-23T14:12:21;3.15;;;0.75;;
59239;SDS011;45010;53.640;10.578;2024-03-23T14:15:21;2.40;;;0.50;;
59239;SDS011;45010;53.640;10.578;2024-03-23T14:18:21;1.60;;;0.57;;
59239;SDS011;45010;53.640;10.578;2024-03-23T14:21:26;3.70;;;0.93;;
59239;SDS011;45010;53.640;10.578;2024-03-23T14:24:26;1.75;;;0.50;;
59239;SDS011;45010;53.640;10.578;2024-03-23T14:27:26;3.10;;;0.55;;
59239;SDS011;45010;53.640;10.578;2024-03-23T14:30:27;1.60;;;0.50;;
59239;SDS011;45010;53.640;10.578;2024-03-23T14:33:27;3.08;;;0.60;;
59239;SDS011;45010;53.640;10.578;2024-03-23T14:36:27;1.52;;;0.47;;
59239;SDS011;45010;53.640;10.578;2024-03-23T14:39:28;2.75;;;0.60;;
59239;SDS011;45010;53.640;10.578;2024-03-23T14:42:30;1.85;;;0.40;;
59239;SDS011;45010;53.640;10.578;2024-03-23T14:45:32;1.63;;;0.43;;
59239;SDS011;45010;53.640;10.578;2024-03-23T14:48:33;2.13;;;0.52;;
59239;SDS011;45010;53.640;10.578;2024-03-23T14:51:34;1.27;;;0.70;;
59239;SDS011;45010;53.640;10.578;2024-03-23T14:54:34;2.90;;;0.80;;
59239;SDS011;45010;53.640;10.578;2024-03-23T14:57:35;2.03;;;0.55;;
59239;SDS011;45010;53.640;10.578;2024-03-23T15:00:35;1.25;;;0.38;;
59239;SDS011;45010;53.640;10.578;2024-03-23T15:03:39;2.47;;;0.60;;
59239;SDS011;45010;53.640;10.578;2024-03-23T15:06:40;1.30;;;0.50;;
59239;SDS011;45010;53.640;10.578;2024-03-23T15:09:40;3.50;;;0.50;;
59239;SDS011;45010;53.640;10.578;2024-03-23T15:12:40;1.15;;;0.40;;
59239;SDS011;45010;53.640;10.578;2024-03-23T15:15:41;1.45;;;0.50;;
59239;SDS011;45010;53.640;10.578;2024-03-23T15:18:43;0.77;;;0.45;;
59239;SDS011;45010;53.640;10.578;2024-03-23T15:21:44;1.02;;;0.40;;
59239;SDS011;45010;53.640;10.578;2024-03-23T15:24:44;3.00;;;0.75;;
59239;SDS011;45010;53.640;10.578;2024-03-23T15:27:44;2.45;;;0.60;;
59239;SDS011;45010;53.640;10.578;2024-03-23T15:30:45;1.05;;;0.40;;
59239;SDS011;45010;53.640;10.578;2024-03-23T15:33:45;1.05;;;0.40;;
59239;SDS011;45010;53.640;10.578;2024-03-23T15:36:46;0.85;;;0.38;;
59239;SDS011;45010;53.640;10.578;2024-03-23T15:39:46;2.63;;;0.50;;
59239;SDS011;45010;53.640;10.578;2024-03-23T15:42:48;1.75;;;0.50;;
59239;SDS011;45010;53.640;10.578;2024-03-23T15:45:55;0.93;;;0.50;;
59239;SDS011;45010;53.640;10.578;2024-03-23T15:48:56;2.53;;;0.30;;
59239;SDS011;45010;53.640;10.578;2024-03-23T15:51:56;3.42;;;0.50;;
59239;SDS011;45010;53.640;10.578;2024-03-23T15:54:57;1.00;;;0.45;;
59239;SDS011;45010;53.640;10.578;2024-03-23T15:57:59;0.93;;;0.43;;
59239;SDS011;45010;53.640;10.578;2024-03-23T16:01:00;1.35;;;0.55;;
59239;SDS011;45010;53.640;10.578;2024-03-23T16:04:02;0.93;;;0.40;;
59239;SDS011;45010;53.640;10.578;2024-03-23T16:07:03;1.48;;;0.50;;
59239;SDS011;45010;53.640;10.578;2024-03-23T16:10:03;0.93;;;0.40;;
59239;SDS011;45010;53.640;10.578;2024-03-23T16:13:07;0.93;;;0.32;;
59239;SDS011;45010;53.640;10.578;2024-03-23T16:16:08;0.35;;;0.20;;
59239;SDS011;45010;53.640;10.578;2024-03-23T16:19:09;1.40;;;0.35;;
59239;SDS011;45010;53.640;10.578;2024-03-23T16:22:12;0.88;;;0.50;;
59239;SDS011;45010;53.640;10.578;2024-03-23T16:25:12;1.60;;;0.30;;
59239;SDS011;45010;53.640;10.578;2024-03-23T16:28:13;1.50;;;0.40;;
59239;SDS011;45010;53.640;10.578;2024-03-23T16:31:13;1.52;;;0.40;;
59239;SDS011;45010;53.640;10.578;2024-03-23T16:34:13;0.60;;;0.30;;
59239;SDS011;45010;53.640;10.578;2024-03-23T16:37:14;1.20;;;0.45;;
59239;SDS011;45010;53.640;10.578;2024-03-23T16:40:14;1.05;;;0.30;;
59239;SDS011;45010;53.640;10.578;2024-03-23T16:43:15;0.65;;;0.40;;
59239;SDS011;45010;53.640;10.578;2024-03-23T16:46:15;1.85;;;0.50;;
59239;SDS011;45010;53.640;10.578;2024-03-23T16:49:15;0.70;;;0.38;;
59239;SDS011;45010;53.640;10.578;2024-03-23T16:52:16;2.30;;;0.47;;
59239;SDS011;45010;53.640;10.578;2024-03-23T16:55:16;0.80;;;0.40;;
59239;SDS011;45010;53.640;10.578;2024-03-23T16:58:16;1.27;;;0.40;;
59239;SDS011;45010;53.640;10.578;2024-03-23T17:01:18;0.40;;;0.30;;
59239;SDS011;45010;53.640;10.578;2024-03-23T17:04:21;1.75;;;0.32;;
59239;SDS011;45010;53.640;10.578;2024-03-23T17:07:22;2.90;;;1.20;;
59239;SDS011;45010;53.640;10.578;2024-03-23T17:10:23;4.28;;;3.83;;
59239;SDS011;45010;53.640;10.578;2024-03-23T17:13:23;4.30;;;3.90;;
59239;SDS011;45010;53.640;10.578;2024-03-23T17:16:23;8.77;;;6.80;;
59239;SDS011;45010;53.640;10.578;2024-03-23T17:19:25;8.85;;;7.38;;
59239;SDS011;45010;53.640;10.578;2024-03-23T17:22:27;8.80;;;7.30;;
59239;SDS011;45010;53.640;10.578;2024-03-23T17:25:27;7.93;;;7.20;;
59239;SDS011;45010;53.640;10.578;2024-03-23T17:28:27;9.32;;;7.50;;
59239;SDS011;45010;53.640;10.578;2024-03-23T17:31:28;9.82;;;8.15;;
59239;SDS011;45010;53.640;10.578;2024-03-23T17:34:28;10.80;;;7.43;;
59239;SDS011;45010;53.640;10.578;2024-03-23T17:37:28;11.00;;;8.27;;
59239;SDS011;45010;53.640;10.578;2024-03-23T17:40:29;10.07;;;7.60;;
59239;SDS011;45010;53.640;10.578;2024-03-23T17:43:29;12.88;;;8.27;;
59239;SDS011;45010;53.640;10.578;2024-03-23T17:46:30;12.45;;;9.18;;
59239;SDS011;45010;53.640;10.578;2024-03-23T17:49:31;13.63;;;9.80;;
59239;SDS011;45010;53.640;10.578;2024-03-23T17:52:31;16.23;;;9.15;;
59239;SDS011;45010;53.640;10.578;2024-03-23T17:55:33;11.02;;;9.10;;
59239;SDS011;45010;53.640;10.578;2024-03-23T17:58:33;12.43;;;9.50;;
59239;SDS011;45010;53.640;10.578;2024-03-23T18:01:34;10.23;;;8.40;;
59239;SDS011;45010;53.640;10.578;2024-03-23T18:04:34;10.57;;;8.35;;
59239;SDS011;45010;53.640;10.578;2024-03-23T18:07:34;11.98;;;8.15;;
59239;SDS011;45010;53.640;10.578;2024-03-23T18:10:35;12.45;;;8.45;;
59239;SDS011;45010;53.640;10.578;2024-03-23T18:13:36;10.65;;;8.02;;
59239;SDS011;45010;53.640;10.578;2024-03-23T18:16:36;9.85;;;7.88;;
59239;SDS011;45010;53.640;10.578;2024-03-23T18:19:36;9.35;;;7.50;;
59239;SDS011;45010;53.640;10.578;2024-03-23T18:22:37;9.60;;;7.65;;
59239;SDS011;45010;53.640;10.578;2024-03-23T18:25:37;10.18;;;7.80;;
59239;SDS011;45010;53.640;10.578;2024-03-23T18:28:37;10.05;;;7.82;;
59239;SDS011;45010;53.640;10.578;2024-03-23T18:31:38;9.52;;;7.35;;
59239;SDS011;45010;53.640;10.578;2024-03-23T18:34:38;11.15;;;7.30;;
59239;SDS011;45010;53.640;10.578;2024-03-23T18:37:39;10.15;;;7.35;;
59239;SDS011;45010;53.640;10.578;2024-03-23T18:40:43;10.75;;;6.82;;
59239;SDS011;45010;53.640;10.578;2024-03-23T18:43:47;9.95;;;6.60;;
59239;SDS011;45010;53.640;10.578;2024-03-23T18:46:48;9.15;;;7.13;;